createdAt,value
2023-06-29T00:00:35.423Z,101272.50
2023-06-29T00:03:04.200Z,101264.66
2023-06-29T00:05:31.837Z,101264.66
2023-06-29T00:07:59.693Z,101261.88
2023-06-29T00:10:29.943Z,101267.28
2023-06-29T00:12:58.261Z,101263.50
2023-06-29T00:15:25.865Z,101262.44
2023-06-29T00:17:58.722Z,101265.66
2023-06-29T00:20:29.531Z,101259.75
2023-06-29T00:22:58.160Z,101253.22
2023-06-29T00:25:25.788Z,101252.72
2023-06-29T00:27:53.593Z,101256.75
2023-06-29T00:30:21.519Z,101248.63
2023-06-29T00:32:49.170Z,101258.41
2023-06-29T00:35:18.338Z,101245.59
2023-06-29T00:37:45.926Z,101244.56
2023-06-29T00:40:14.367Z,101234.03
2023-06-29T00:42:43.202Z,101233.25
2023-06-29T00:45:12.413Z,101232.41
2023-06-29T00:47:40.251Z,101226.22
2023-06-29T00:50:08.891Z,101230.53
2023-06-29T00:52:38.138Z,101230.53
2023-06-29T00:55:06.608Z,101226.75
2023-06-29T00:57:34.241Z,101222.91
2023-06-29T01:00:02.084Z,101227.22
2023-06-29T01:02:31.427Z,101221.81
2023-06-29T01:04:59.573Z,101216.59
2023-06-29T01:07:34.136Z,101219.03
2023-06-29T01:10:04.694Z,101212.00
2023-06-29T01:12:34.580Z,101210.84
2023-06-29T01:15:06.593Z,101214.63
2023-06-29T01:17:39.375Z,101211.03
2023-06-29T01:20:11.013Z,101217.13
2023-06-29T01:22:42.393Z,101216.31
2023-06-29T01:25:13.758Z,101211.16
2023-06-29T01:27:44.641Z,101208.09
2023-06-29T01:30:14.405Z,101208.09
2023-06-29T01:32:42.250Z,101201.53
2023-06-29T01:35:10.564Z,101206.41
2023-06-29T01:37:44.100Z,101202.28
2023-06-29T01:40:18.050Z,101199.28
2023-06-29T01:42:46.174Z,101202.22
2023-06-29T01:45:14.158Z,101198.72
2023-06-29T01:47:42.698Z,101200.84
2023-06-29T01:50:11.756Z,101198.13
2023-06-29T01:52:39.775Z,101203.53
2023-06-29T01:55:10.209Z,101191.09
2023-06-29T01:57:39.218Z,101190.59
2023-06-29T02:00:09.885Z,101186.78
2023-06-29T02:02:43.877Z,101198.13
2023-06-29T02:05:11.591Z,101192.72
2023-06-29T02:07:40.767Z,101187.28
2023-06-29T02:10:10.732Z,101191.88
2023-06-29T02:12:41.608Z,101186.22
2023-06-29T02:15:11.581Z,101192.19
2023-06-29T02:17:39.235Z,101191.69
2023-06-29T02:20:10.284Z,101186.53
2023-06-29T02:22:39.210Z,101188.94
2023-06-29T02:25:08.357Z,101191.38
2023-06-29T02:27:36.294Z,101196.00
2023-06-29T02:30:05.897Z,101193.22
2023-06-29T02:32:33.674Z,101188.63
2023-06-29T02:35:01.513Z,101191.88
2023-06-29T02:37:29.166Z,101187.28
2023-06-29T02:39:56.758Z,101192.66
2023-06-29T02:42:24.549Z,101190.47
2023-06-29T02:44:52.177Z,101191.00
2023-06-29T02:47:21.233Z,101183.22
2023-06-29T02:49:48.907Z,101180.25
2023-06-29T02:52:18.715Z,101178.09
2023-06-29T02:54:46.655Z,101178.09
2023-06-29T02:57:18.830Z,101174.34
2023-06-29T02:59:46.423Z,101173.00
2023-06-29T03:02:14.157Z,101181.56
2023-06-29T03:04:43.302Z,101179.16
2023-06-29T03:07:10.922Z,101171.69
2023-06-29T03:09:38.552Z,101170.84
2023-06-29T03:12:07.094Z,101175.53
2023-06-29T03:14:34.685Z,101184.13
2023-06-29T03:17:02.335Z,101174.97
2023-06-29T03:19:29.939Z,101179.06
2023-06-29T03:21:58.874Z,101174.16
2023-06-29T03:24:26.486Z,101170.03
2023-06-29T03:26:54.278Z,101172.50
2023-06-29T03:29:21.886Z,101172.75
2023-06-29T03:31:49.491Z,101172.19
2023-06-29T03:34:17.138Z,101179.56
2023-06-29T03:36:44.691Z,101172.50
2023-06-29T03:39:13.572Z,101173.56
2023-06-29T03:41:41.149Z,101170.59
2023-06-29T03:44:08.729Z,101171.91
2023-06-29T03:46:36.296Z,101167.88
2023-06-29T03:49:04.000Z,101169.31
2023-06-29T03:51:31.793Z,101171.19
2023-06-29T03:53:59.353Z,101173.63
2023-06-29T03:56:28.277Z,101170.09
2023-06-29T03:58:55.927Z,101167.41
2023-06-29T04:01:23.597Z,101158.47
2023-06-29T04:03:51.757Z,101157.97
2023-06-29T04:06:19.399Z,101161.53
2023-06-29T04:08:46.999Z,101163.94
2023-06-29T04:11:14.605Z,101162.06
2023-06-29T04:13:43.483Z,101165.28
2023-06-29T04:16:11.042Z,101159.84
2023-06-29T04:18:38.585Z,101166.38
2023-06-29T04:21:06.210Z,101166.88
2023-06-29T04:23:33.800Z,101163.38
2023-06-29T04:26:03.897Z,101165.81
2023-06-29T04:28:31.494Z,101162.59
2023-06-29T04:31:00.686Z,101160.69
2023-06-29T04:33:28.286Z,101154.75
2023-06-29T04:35:56.168Z,101148.91
2023-06-29T04:38:26.930Z,101155.25
2023-06-29T04:41:04.441Z,101149.91
2023-06-29T04:43:32.375Z,101140.63
2023-06-29T04:46:01.865Z,101145.22
2023-06-29T04:48:34.165Z,101140.69
2023-06-29T04:51:05.945Z,101142.09
2023-06-29T04:53:33.793Z,101140.25
2023-06-29T04:56:02.245Z,101123.78
2023-06-29T04:58:30.090Z,101140.59
2023-06-29T05:00:57.884Z,101124.94
2023-06-29T05:03:28.478Z,101132.75
2023-06-29T05:05:56.213Z,101123.00
2023-06-29T05:08:23.823Z,101124.34
2023-06-29T05:10:51.429Z,101126.03
2023-06-29T05:13:19.087Z,101128.25
2023-06-29T05:15:49.096Z,101129.97
2023-06-29T05:18:17.048Z,101129.41
2023-06-29T05:20:46.122Z,101126.13
2023-06-29T05:23:13.761Z,101130.25
2023-06-29T05:25:42.655Z,101128.34
2023-06-29T05:28:10.619Z,101124.06
2023-06-29T05:30:38.238Z,101125.41
2023-06-29T05:33:06.200Z,101133.03
2023-06-29T05:35:35.428Z,101129.78
2023-06-29T05:38:04.774Z,101131.13
2023-06-29T05:40:33.562Z,101131.69
2023-06-29T05:43:01.194Z,101119.72
2023-06-29T05:45:28.772Z,101129.78
2023-06-29T05:47:56.984Z,101123.03
2023-06-29T05:50:24.651Z,101126.88
2023-06-29T05:52:52.225Z,101125.78
2023-06-29T05:55:21.376Z,101127.19
2023-06-29T05:57:49.473Z,101128.28
2023-06-29T06:00:19.143Z,101124.28
2023-06-29T06:02:46.926Z,101126.19
2023-06-29T06:05:15.231Z,101124.19
2023-06-29T06:07:42.906Z,101121.47
2023-06-29T06:10:10.981Z,101129.09
2023-06-29T06:12:39.924Z,101119.41
2023-06-29T06:15:12.044Z,101123.25
2023-06-29T06:17:39.684Z,101122.72
2023-06-29T06:20:09.508Z,101122.19
2023-06-29T06:22:37.054Z,101113.53
2023-06-29T06:25:05.015Z,101122.00
2023-06-29T06:27:32.845Z,101119.03
2023-06-29T06:30:05.664Z,101124.16
2023-06-29T06:32:33.370Z,101122.22
2023-06-29T06:35:00.959Z,101118.72
2023-06-29T06:37:28.652Z,101117.03
2023-06-29T06:39:56.232Z,101123.50
2023-06-29T06:42:23.889Z,101111.81
2023-06-29T06:44:53.457Z,101123.25
2023-06-29T06:47:22.557Z,101116.25
2023-06-29T06:49:50.142Z,101118.53
2023-06-29T06:52:17.743Z,101107.41
2023-06-29T06:54:45.345Z,101112.06
2023-06-29T06:57:12.975Z,101109.13
2023-06-29T06:59:40.619Z,101108.84
2023-06-29T07:02:08.421Z,101107.25
2023-06-29T07:04:37.446Z,101109.97
2023-06-29T07:07:05.827Z,101115.41
2023-06-29T07:09:33.440Z,101122.75
2023-06-29T07:12:01.112Z,101117.53
2023-06-29T07:14:28.861Z,101115.88
2023-06-29T07:16:56.816Z,101118.69
2023-06-29T07:24:27.108Z,101115.22
2023-06-29T07:26:54.681Z,101108.13
2023-06-29T07:29:22.306Z,101107.31
2023-06-29T07:31:49.915Z,101101.34
2023-06-29T07:34:20.184Z,101099.13
2023-06-29T07:36:47.777Z,101095.59
2023-06-29T07:39:16.766Z,101093.63
2023-06-29T07:41:45.098Z,101092.50
2023-06-29T07:44:12.698Z,101089.13
2023-06-29T07:46:40.328Z,101085.53
2023-06-29T07:49:08.128Z,101092.28
2023-06-29T07:51:35.817Z,101092.25
2023-06-29T07:54:05.061Z,101085.69
2023-06-29T07:59:05.425Z,101082.75
2023-06-29T08:01:36.418Z,101082.13
2023-06-29T08:04:04.863Z,101088.19
2023-06-29T08:09:05.278Z,101077.28
2023-06-29T08:11:34.422Z,101084.25
2023-06-29T08:14:02.111Z,101079.75
2023-06-29T08:16:29.758Z,101083.59
2023-06-29T08:18:57.444Z,101077.56
2023-06-29T08:21:25.206Z,101077.50
2023-06-29T08:23:52.799Z,101068.84
2023-06-29T08:26:20.515Z,101069.13
2023-06-29T08:28:50.105Z,101071.66
2023-06-29T08:31:18.913Z,101072.56
2023-06-29T08:33:47.267Z,101061.59
2023-06-29T08:36:14.931Z,101056.19
2023-06-29T08:38:47.023Z,101052.88
2023-06-29T08:41:15.510Z,101050.91
2023-06-29T08:43:43.642Z,101040.22
2023-06-29T08:46:12.648Z,101045.00
2023-06-29T08:48:44.176Z,101044.97
2023-06-29T08:51:17.215Z,101047.94
2023-06-29T08:53:45.193Z,101049.38
2023-06-29T08:56:14.048Z,101045.81
2023-06-29T08:58:41.703Z,101043.69
2023-06-29T09:01:09.994Z,101043.88
2023-06-29T09:03:39.589Z,101046.38
2023-06-29T09:06:09.884Z,101041.69
2023-06-29T09:08:38.367Z,101035.06
2023-06-29T09:11:06.546Z,101039.63
2023-06-29T09:13:34.997Z,101044.69
2023-06-29T09:16:02.764Z,101050.06
2023-06-29T09:18:30.576Z,101050.88
2023-06-29T09:20:59.522Z,101050.59
2023-06-29T09:23:29.951Z,101042.69
2023-06-29T09:25:59.051Z,101043.69
2023-06-29T09:28:28.014Z,101040.25
2023-06-29T09:30:56.596Z,101049.81
2023-06-29T09:33:27.375Z,101048.38
2023-06-29T09:35:55.553Z,101042.66
2023-06-29T09:38:24.492Z,101034.13
2023-06-29T09:40:53.736Z,101035.50
2023-06-29T09:43:23.651Z,101044.81
2023-06-29T09:45:53.858Z,101039.06
2023-06-29T09:50:56.819Z,101024.19
2023-06-29T09:53:32.984Z,101036.09
2023-06-29T09:56:03.196Z,101030.31
2023-06-29T09:58:32.413Z,101032.78
2023-06-29T10:01:03.108Z,101026.56
2023-06-29T10:03:32.467Z,101028.81
2023-06-29T10:06:05.383Z,101030.06
2023-06-29T10:08:36.742Z,101025.03
2023-06-29T10:11:06.859Z,101029.22
2023-06-29T10:13:39.633Z,101028.59
2023-06-29T10:16:10.593Z,101023.81
2023-06-29T10:18:42.935Z,101017.03
2023-06-29T10:21:10.935Z,101028.78
2023-06-29T10:23:43.420Z,101016.50
2023-06-29T10:26:12.780Z,101015.56
2023-06-29T10:28:40.696Z,101012.88
2023-06-29T10:31:08.467Z,101014.41
2023-06-29T10:33:47.424Z,101014.41
2023-06-29T10:36:17.178Z,101022.34
2023-06-29T10:38:46.265Z,101011.28
2023-06-29T10:41:27.146Z,101014.28
2023-06-29T10:43:59.132Z,101019.50
2023-06-29T10:46:42.889Z,101011.84
2023-06-29T10:49:21.924Z,101010.78
2023-06-29T10:51:51.294Z,101012.41
2023-06-29T10:54:23.309Z,101011.25
2023-06-29T10:56:58.615Z,101012.00
2023-06-29T10:59:27.521Z,101011.94
2023-06-29T11:01:55.692Z,101012.75
2023-06-29T11:04:24.565Z,101012.31
2023-06-29T11:06:52.656Z,101012.00
2023-06-29T11:09:21.797Z,101001.50
2023-06-29T11:11:50.348Z,101006.78
2023-06-29T11:14:19.686Z,101005.72
2023-06-29T11:16:48.391Z,101011.53
2023-06-29T11:19:16.205Z,101007.81
2023-06-29T11:21:43.810Z,101006.16
2023-06-29T11:24:11.729Z,101005.66
2023-06-29T11:26:40.696Z,101013.75
2023-06-29T11:29:09.366Z,101008.81
2023-06-29T11:31:37.254Z,101006.66
2023-06-29T11:34:05.040Z,101004.41
2023-06-29T11:36:36.291Z,101006.88
2023-06-29T11:39:09.574Z,101012.34
2023-06-29T11:41:38.275Z,101006.66
2023-06-29T11:44:09.060Z,101006.28
2023-06-29T11:46:39.835Z,101014.06
2023-06-29T11:49:08.142Z,101011.13
2023-06-29T11:51:39.512Z,101006.75
2023-06-29T11:54:09.517Z,101002.41
2023-06-29T11:56:38.629Z,101001.69
2023-06-29T11:59:08.574Z,101000.72
2023-06-29T12:01:37.246Z,100999.06
2023-06-29T12:04:06.002Z,101001.00
2023-06-29T12:06:34.850Z,100994.69
2023-06-29T12:09:02.420Z,100997.94
2023-06-29T12:11:30.752Z,100988.75
2023-06-29T12:13:58.424Z,100989.88
2023-06-29T12:18:58.618Z,100981.00
2023-06-29T12:21:26.374Z,100979.38
2023-06-29T12:23:54.461Z,100978.78
2023-06-29T12:26:22.375Z,100979.13
2023-06-29T12:28:50.108Z,100975.78
2023-06-29T12:31:17.789Z,100974.72
2023-06-29T12:33:46.651Z,100968.97
2023-06-29T12:36:14.297Z,100966.00
2023-06-29T12:38:41.900Z,100971.72
2023-06-29T12:41:09.622Z,100960.41
2023-06-29T12:43:37.289Z,100967.00
2023-06-29T12:46:04.836Z,100967.94
2023-06-29T12:48:32.465Z,100958.94
2023-06-29T12:51:01.652Z,100963.66
2023-06-29T12:53:29.503Z,100961.88
2023-06-29T12:55:57.758Z,100957.63
2023-06-29T12:58:25.460Z,100957.03
2023-06-29T13:00:53.881Z,100957.50
2023-06-29T13:03:21.773Z,100955.56
2023-06-29T13:05:52.977Z,100944.50
2023-06-29T13:08:21.968Z,100951.66
2023-06-29T13:10:49.536Z,100940.28
2023-06-29T13:13:17.187Z,100947.44
2023-06-29T13:15:46.169Z,100950.47
2023-06-29T13:18:14.162Z,100952.06
2023-06-29T13:20:41.724Z,100952.31
2023-06-29T13:23:09.324Z,100951.72
2023-06-29T13:25:38.312Z,100945.47
2023-06-29T13:28:06.087Z,100939.25
2023-06-29T13:30:33.780Z,100943.63
2023-06-29T13:33:01.483Z,100951.31
2023-06-29T13:35:29.065Z,100950.25
2023-06-29T13:37:56.616Z,100950.81
2023-06-29T13:40:24.423Z,100947.47
2023-06-29T13:42:53.387Z,100951.75
2023-06-29T13:45:21.128Z,100942.59
2023-06-29T13:47:48.745Z,100944.25
2023-06-29T13:50:20.283Z,100939.63
2023-06-29T13:52:50.246Z,100934.25
2023-06-29T13:55:18.151Z,100934.41
2023-06-29T13:57:45.762Z,100931.06
2023-06-29T14:00:15.986Z,100926.81
2023-06-29T14:02:43.943Z,100929.88
2023-06-29T14:05:11.726Z,100926.72
2023-06-29T14:07:39.334Z,100923.66
2023-06-29T14:10:07.751Z,100921.44
2023-06-29T14:12:35.408Z,100919.16
2023-06-29T14:15:03.059Z,100917.91
2023-06-29T14:17:32.088Z,100915.81
2023-06-29T14:19:59.702Z,100909.16
2023-06-29T14:22:27.308Z,100906.38
2023-06-29T14:24:54.919Z,100903.66
2023-06-29T14:27:22.567Z,100905.78
2023-06-29T14:29:50.164Z,100892.16
2023-06-29T14:32:17.808Z,100899.78
2023-06-29T14:34:49.133Z,100888.13
2023-06-29T14:37:16.840Z,100880.97
2023-06-29T14:39:44.395Z,100880.78
2023-06-29T14:42:11.955Z,100877.41
2023-06-29T14:44:41.985Z,100865.78
2023-06-29T14:47:10.407Z,100869.00
2023-06-29T14:49:38.023Z,100858.16
2023-06-29T14:52:07.624Z,100856.53
2023-06-29T14:54:35.203Z,100854.75
2023-06-29T14:57:02.823Z,100853.38
2023-06-29T14:59:30.428Z,100856.78
2023-06-29T15:01:58.120Z,100846.56
2023-06-29T15:04:25.911Z,100843.53
2023-06-29T15:06:54.097Z,100843.19
2023-06-29T15:09:24.505Z,100845.63
2023-06-29T15:11:52.955Z,100841.13
2023-06-29T15:14:20.584Z,100844.81
2023-06-29T15:16:48.223Z,100842.25
2023-06-29T15:19:16.013Z,100840.88
2023-06-29T15:21:43.553Z,100833.91
2023-06-29T15:24:11.150Z,100830.66
2023-06-29T15:26:40.165Z,100841.66
2023-06-29T15:29:07.750Z,100831.50
2023-06-29T15:31:35.677Z,100834.38
2023-06-29T15:34:04.167Z,100832.63
2023-06-29T15:36:32.276Z,100827.53
2023-06-29T15:38:59.947Z,100827.31
2023-06-29T15:41:27.586Z,100821.50
2023-06-29T15:44:01.514Z,100816.03
2023-06-29T15:46:29.576Z,100820.59
2023-06-29T15:48:57.875Z,100816.81
2023-06-29T15:51:26.404Z,100810.94
2023-06-29T15:53:55.078Z,100807.50
2023-06-29T15:56:22.727Z,100808.44
2023-06-29T15:58:50.350Z,100805.25
2023-06-29T16:01:19.257Z,100796.09
2023-06-29T16:03:46.988Z,100796.81
2023-06-29T16:06:14.677Z,100794.00
2023-06-29T16:08:42.365Z,100791.81
2023-06-29T16:11:09.950Z,100788.66
2023-06-29T16:13:37.555Z,100785.69
2023-06-29T16:16:05.447Z,100783.63
2023-06-29T16:18:34.385Z,100782.97
2023-06-29T16:21:01.936Z,100776.66
2023-06-29T16:23:29.531Z,100781.16
2023-06-29T16:25:57.325Z,100780.53
2023-06-29T16:28:24.935Z,100768.50
2023-06-29T16:30:52.822Z,100766.94
2023-06-29T16:33:20.502Z,100769.53
2023-06-29T16:35:49.415Z,100768.72
2023-06-29T16:38:17.021Z,100770.00
2023-06-29T16:40:45.442Z,100765.03
2023-06-29T16:43:13.179Z,100762.00
2023-06-29T16:45:40.812Z,100754.34
2023-06-29T16:48:08.484Z,100762.59
2023-06-29T16:50:36.168Z,100754.13
2023-06-29T16:53:05.184Z,100756.56
2023-06-29T16:55:32.737Z,100756.41
2023-06-29T16:58:00.554Z,100755.44
2023-06-29T17:00:28.240Z,100743.44
2023-06-29T17:02:55.984Z,100740.78
2023-06-29T17:05:23.678Z,100748.16
2023-06-29T17:07:51.321Z,100746.25
2023-06-29T17:10:20.222Z,100750.00
2023-06-29T17:12:47.823Z,100745.06
2023-06-29T17:15:15.543Z,100749.72
2023-06-29T17:17:43.296Z,100743.22
2023-06-29T17:20:12.031Z,100742.03
2023-06-29T17:22:39.604Z,100749.16
2023-06-29T17:25:08.351Z,100751.53
2023-06-29T17:27:37.333Z,100750.28
2023-06-29T17:30:06.002Z,100754.97
2023-06-29T17:32:33.612Z,100746.44
2023-06-29T17:35:01.185Z,100747.25
2023-06-29T17:37:28.729Z,100744.19
2023-06-29T17:39:56.311Z,100746.78
2023-06-29T17:42:25.515Z,100736.31
2023-06-29T17:44:54.462Z,100746.06
2023-06-29T17:47:22.080Z,100741.63
2023-06-29T17:49:50.492Z,100742.63
2023-06-29T17:52:18.327Z,100745.91
2023-06-29T17:54:49.234Z,100749.31
2023-06-29T17:57:16.912Z,100746.59
2023-06-29T17:59:44.505Z,100745.28
2023-06-29T18:02:13.518Z,100745.31
2023-06-29T18:04:41.485Z,100742.25
2023-06-29T18:07:10.408Z,100739.94
2023-06-29T18:09:38.065Z,100735.94
2023-06-29T18:12:07.180Z,100747.13
2023-06-29T18:14:34.926Z,100749.75
2023-06-29T18:17:04.503Z,100749.34
2023-06-29T18:19:33.420Z,100755.81
2023-06-29T18:22:01.040Z,100756.59
2023-06-29T18:24:28.746Z,100773.59
2023-06-29T18:26:56.346Z,100768.59
2023-06-29T18:29:23.995Z,100770.78
2023-06-29T18:31:53.486Z,100748.91
2023-06-29T18:34:21.041Z,100749.78
2023-06-29T18:36:50.004Z,100749.25
2023-06-29T18:39:17.964Z,100749.84
2023-06-29T18:41:45.646Z,100749.28
2023-06-29T18:44:13.785Z,100750.91
2023-06-29T18:46:42.822Z,100742.25
2023-06-29T18:49:10.793Z,100744.41
2023-06-29T18:51:38.420Z,100749.28
2023-06-29T18:54:07.759Z,100737.88
2023-06-29T18:56:35.301Z,100739.53
2023-06-29T18:59:02.889Z,100735.72
2023-06-29T19:01:30.428Z,100740.59
2023-06-29T19:03:58.027Z,100733.00
2023-06-29T19:06:25.702Z,100735.97
2023-06-29T19:08:53.270Z,100734.91
2023-06-29T19:11:22.911Z,100740.59
2023-06-29T19:13:50.458Z,100743.88
2023-06-29T19:16:18.787Z,100735.47
2023-06-29T19:18:46.388Z,100736.28
2023-06-29T19:21:14.811Z,100740.09
2023-06-29T19:23:44.807Z,100738.47
2023-06-29T19:26:12.493Z,100741.44
2023-06-29T19:28:41.593Z,100743.59
2023-06-29T19:31:09.252Z,100741.19
2023-06-29T19:33:37.026Z,100750.16
2023-06-29T19:36:05.037Z,100752.06
2023-06-29T19:38:32.592Z,100755.84
2023-06-29T19:41:00.289Z,100757.50
2023-06-29T19:43:27.901Z,100753.47
2023-06-29T19:45:56.842Z,100757.81
2023-06-29T19:48:25.966Z,100762.72
2023-06-29T19:50:53.713Z,100767.31
2023-06-29T19:53:21.380Z,100773.31
2023-06-29T19:55:49.139Z,100772.47
2023-06-29T19:58:16.916Z,100773.56
2023-06-29T20:00:44.689Z,100775.72
2023-06-29T20:03:14.019Z,100783.59
2023-06-29T20:05:43.759Z,100779.50
2023-06-29T20:08:11.864Z,100777.63
2023-06-29T20:10:39.494Z,100780.34
2023-06-29T20:13:07.097Z,100784.69
2023-06-29T20:15:34.662Z,100787.94
2023-06-29T20:18:02.480Z,100782.50
2023-06-29T20:20:31.730Z,100788.47
2023-06-29T20:22:59.416Z,100776.03
2023-06-29T20:25:27.760Z,100783.84
2023-06-29T20:27:55.365Z,100784.97
2023-06-29T20:30:23.292Z,100786.59
2023-06-29T20:32:51.063Z,100789.56
2023-06-29T20:35:18.742Z,100786.31
2023-06-29T20:37:47.673Z,100785.22
2023-06-29T20:40:15.486Z,100794.16
2023-06-29T20:42:43.164Z,100790.06
2023-06-29T20:45:13.362Z,100798.47
2023-06-29T20:47:41.634Z,100794.94
2023-06-29T20:50:10.298Z,100800.06
2023-06-29T20:52:37.894Z,100797.63
2023-06-29T20:55:08.114Z,100788.38
2023-06-29T20:57:38.041Z,100786.19
2023-06-29T21:00:07.290Z,100789.44
2023-06-29T21:02:36.382Z,100784.50
2023-06-29T21:05:05.727Z,100788.03
2023-06-29T21:07:33.992Z,100781.56
2023-06-29T21:10:01.950Z,100773.38
2023-06-29T21:12:31.353Z,100775.56
2023-06-29T21:14:59.492Z,100771.50
2023-06-29T21:17:27.657Z,100757.66
2023-06-29T21:19:55.590Z,100766.06
2023-06-29T21:22:24.279Z,100773.13
2023-06-29T21:24:52.445Z,100770.41
2023-06-29T21:27:20.808Z,100759.59
2023-06-29T21:29:49.980Z,100763.34
2023-06-29T21:32:18.090Z,100762.81
2023-06-29T21:34:45.960Z,100766.31
2023-06-29T21:37:14.157Z,100769.84
2023-06-29T21:39:41.908Z,100769.31
2023-06-29T21:42:09.707Z,100770.66
2023-06-29T21:44:37.294Z,100771.47
2023-06-29T21:47:07.354Z,100762.25
2023-06-29T21:49:35.059Z,100767.41
2023-06-29T21:52:02.646Z,100763.84
2023-06-29T21:54:30.307Z,100748.38
2023-06-29T21:56:57.907Z,100758.38
2023-06-29T21:59:25.502Z,100751.41
2023-06-29T22:01:53.414Z,100749.19
2023-06-29T22:04:22.370Z,100755.44
2023-06-29T22:06:54.092Z,100749.19
2023-06-29T22:09:26.961Z,100748.09
2023-06-29T22:11:54.797Z,100747.06
2023-06-29T22:14:22.412Z,100748.38
2023-06-29T22:16:50.061Z,100746.19
2023-06-29T22:19:18.475Z,100753.72
2023-06-29T22:21:47.504Z,100758.88
2023-06-29T22:24:15.122Z,100752.91
2023-06-29T22:26:42.688Z,100760.75
2023-06-29T22:29:10.319Z,100755.06
2023-06-29T22:31:38.073Z,100755.06
2023-06-29T22:34:05.734Z,100757.16
2023-06-29T22:36:33.295Z,100749.63
2023-06-29T22:39:02.541Z,100740.38
2023-06-29T22:41:30.126Z,100752.81
2023-06-29T22:43:58.560Z,100758.28
2023-06-29T22:46:27.456Z,100749.59
2023-06-29T22:48:55.205Z,100759.84
2023-06-29T22:51:25.528Z,100760.38
2023-06-29T22:53:53.528Z,100758.19
2023-06-29T22:56:23.280Z,100756.00
2023-06-29T22:59:09.016Z,100754.34
2023-06-29T23:01:36.757Z,100758.09
2023-06-29T23:04:04.789Z,100756.44
2023-06-29T23:06:32.477Z,100755.84
2023-06-29T23:09:02.736Z,100758.03
2023-06-29T23:11:32.274Z,100761.53
2023-06-29T23:14:00.689Z,100761.25
2023-06-29T23:16:28.426Z,100759.13
2023-06-29T23:18:56.078Z,100760.16
2023-06-29T23:21:23.699Z,100753.66
2023-06-29T23:23:54.261Z,100765.56
2023-06-29T23:26:22.994Z,100759.31
2023-06-29T23:28:52.720Z,100761.75
2023-06-29T23:31:21.720Z,100765.78
2023-06-29T23:33:49.667Z,100761.97
2023-06-29T23:36:21.920Z,100764.38
2023-06-29T23:38:50.347Z,100761.72
2023-06-29T23:41:18.123Z,100772.78
2023-06-29T23:43:45.756Z,100767.63
2023-06-29T23:46:16.483Z,100774.44
2023-06-29T23:48:44.143Z,100773.03
2023-06-29T23:51:11.752Z,100763.19
2023-06-29T23:53:39.407Z,100764.81
2023-06-29T23:56:07.122Z,100762.63
2023-06-29T23:58:34.747Z,100764.25
